createdAt,value
2018-09-12T00:00:20.562Z,99.90
2018-09-12T00:02:50.332Z,99.90
2018-09-12T00:05:20.206Z,99.90
2018-09-12T00:07:50.467Z,99.90
2018-09-12T00:10:20.585Z,99.90
2018-09-12T00:12:50.539Z,99.90
2018-09-12T00:15:20.197Z,99.90
2018-09-12T00:17:50.148Z,99.90
2018-09-12T00:20:20.227Z,99.90
2018-09-12T00:22:50.287Z,99.90
2018-09-12T00:25:20.104Z,99.90
2018-09-12T00:30:24.910Z,99.90
2018-09-12T00:32:55.006Z,99.90
2018-09-12T00:35:25.084Z,99.90
2018-09-12T00:37:55.165Z,99.90
2018-09-12T00:40:25.359Z,99.90
2018-09-12T00:42:55.496Z,99.90
2018-09-12T00:45:25.469Z,99.90
2018-09-12T00:50:26.530Z,99.90
2018-09-12T00:52:56.367Z,99.90
2018-09-12T00:55:26.395Z,99.90
2018-09-12T00:57:56.673Z,99.90
2018-09-12T01:00:25.858Z,99.90
2018-09-12T01:02:55.969Z,99.90
2018-09-12T01:05:26.111Z,99.90
2018-09-12T01:07:57.078Z,99.90
2018-09-12T01:10:27.192Z,99.90
2018-09-12T01:12:57.958Z,99.90
2018-09-12T01:15:28.131Z,99.90
2018-09-12T01:17:58.406Z,99.90
2018-09-12T01:20:28.375Z,99.90
2018-09-12T01:22:59.544Z,99.90
2018-09-12T01:25:29.068Z,99.90
2018-09-12T01:27:59.296Z,99.90
2018-09-12T01:30:29.442Z,99.90
2018-09-12T01:32:59.366Z,99.90
2018-09-12T01:35:29.488Z,99.90
2018-09-12T01:37:59.946Z,99.90
2018-09-12T01:40:30.118Z,99.90
2018-09-12T01:43:00.172Z,99.90
2018-09-12T01:45:30.303Z,99.90
2018-09-12T01:50:32.164Z,99.90
2018-09-12T01:53:02.411Z,99.90
2018-09-12T01:55:33.238Z,99.90
2018-09-12T01:58:03.585Z,99.90
2018-09-12T02:00:39.257Z,99.90
2018-09-12T02:03:08.886Z,99.90
2018-09-12T02:05:38.587Z,99.90
2018-09-12T02:08:09.535Z,99.90
2018-09-12T02:10:39.511Z,99.90
2018-09-12T02:13:09.276Z,99.90
2018-09-12T02:15:40.295Z,99.90
2018-09-12T02:18:10.129Z,99.90
2018-09-12T02:20:40.994Z,99.90
2018-09-12T02:23:11.283Z,99.90
2018-09-12T02:25:41.463Z,99.90
2018-09-12T02:28:10.865Z,99.90
2018-09-12T02:30:40.061Z,99.90
2018-09-12T02:33:10.566Z,99.90
2018-09-12T02:39:19.288Z,99.90
2018-09-12T02:41:48.762Z,99.90
2018-09-12T02:44:18.537Z,99.90
2018-09-12T02:46:48.857Z,99.90
2018-09-12T02:49:19.024Z,99.90
2018-09-12T02:51:49.634Z,99.90
2018-09-12T02:54:19.086Z,99.90
2018-09-12T02:56:49.421Z,99.90
2018-09-12T02:59:19.095Z,99.90
2018-09-12T03:01:49.014Z,99.90
2018-09-12T03:04:18.958Z,99.90
2018-09-12T03:06:49.025Z,99.90
2018-09-12T03:09:19.376Z,99.90
2018-09-12T03:11:49.550Z,99.90
2018-09-12T03:14:18.763Z,99.90
2018-09-12T03:16:48.915Z,99.90
2018-09-12T03:19:19.269Z,99.90
2018-09-12T03:21:48.846Z,99.90
2018-09-12T03:24:18.884Z,99.90
2018-09-12T03:26:49.250Z,99.90
2018-09-12T03:29:24.542Z,99.90
2018-09-12T03:31:59.776Z,99.90
2018-09-12T03:34:30.151Z,99.90
2018-09-12T03:37:00.085Z,99.90
2018-09-12T03:39:30.503Z,99.90
2018-09-12T03:41:59.646Z,99.90
2018-09-12T03:44:29.026Z,99.90
2018-09-12T03:49:34.009Z,99.90
2018-09-12T03:52:06.716Z,99.90
2018-09-12T03:54:36.798Z,99.90
2018-09-12T03:57:07.329Z,99.90
2018-09-12T03:59:37.439Z,99.90
2018-09-12T04:02:07.537Z,99.90
2018-09-12T04:04:37.095Z,99.90
2018-09-12T04:07:06.718Z,99.90
2018-09-12T04:09:37.070Z,99.90
2018-09-12T04:12:06.610Z,99.90
2018-09-12T04:14:36.826Z,99.90
2018-09-12T04:19:42.342Z,99.90
2018-09-12T04:22:11.756Z,99.90
2018-09-12T04:24:41.253Z,99.90
2018-09-12T04:27:11.258Z,99.90
2018-09-12T04:29:40.975Z,99.90
2018-09-12T04:32:11.270Z,99.90
2018-09-12T04:34:41.690Z,99.90
2018-09-12T04:37:12.017Z,99.90
2018-09-12T04:39:42.555Z,99.90
2018-09-12T04:42:12.150Z,99.90
2018-09-12T04:44:43.178Z,99.90
2018-09-12T04:47:13.355Z,99.90
2018-09-12T04:49:42.921Z,99.90
2018-09-12T04:52:13.402Z,99.90
2018-09-12T04:54:55.093Z,99.90
2018-09-12T04:57:25.253Z,99.90
2018-09-12T04:59:55.941Z,99.90
2018-09-12T05:02:26.441Z,99.90
2018-09-12T05:04:56.841Z,99.90
2018-09-12T05:07:26.837Z,99.90
2018-09-12T05:09:57.105Z,99.90
2018-09-12T05:12:33.847Z,99.90
2018-09-12T05:15:04.080Z,99.90
2018-09-12T05:17:34.285Z,99.90
2018-09-12T05:20:04.438Z,99.90
2018-09-12T05:22:34.525Z,99.90
2018-09-12T05:25:04.722Z,99.90
2018-09-12T05:27:35.258Z,99.90
2018-09-12T05:30:05.918Z,99.90
2018-09-12T05:32:36.860Z,99.90
2018-09-12T05:35:07.230Z,99.90
2018-09-12T05:37:37.047Z,99.90
2018-09-12T05:40:07.785Z,99.90
2018-09-12T05:42:37.916Z,99.90
2018-09-12T05:45:08.404Z,99.90
2018-09-12T05:47:38.698Z,99.90
2018-09-12T05:50:08.344Z,99.90
2018-09-12T05:52:39.303Z,99.90
2018-09-12T05:55:09.601Z,99.90
2018-09-12T05:57:40.220Z,99.90
2018-09-12T06:00:10.544Z,99.90
2018-09-12T06:02:40.894Z,99.90
2018-09-12T06:05:11.034Z,99.90
2018-09-12T06:07:40.978Z,99.90
2018-09-12T06:10:11.186Z,99.90
2018-09-12T06:12:41.050Z,99.90
2018-09-12T06:15:11.295Z,99.90
2018-09-12T06:17:41.241Z,99.90
2018-09-12T06:20:11.053Z,99.90
2018-09-12T06:22:41.409Z,99.90
2018-09-12T06:25:11.633Z,99.90
2018-09-12T06:27:41.953Z,99.90
2018-09-12T06:30:12.070Z,99.90
2018-09-12T06:32:42.147Z,99.90
2018-09-12T06:35:12.380Z,99.90
2018-09-12T06:37:44.140Z,99.90
2018-09-12T06:40:14.457Z,99.90
2018-09-12T06:42:44.590Z,99.90
2018-09-12T06:45:15.528Z,99.90
2018-09-12T06:47:47.118Z,99.90
2018-09-12T06:50:16.667Z,99.90
2018-09-12T06:52:46.966Z,99.90
2018-09-12T06:55:17.102Z,99.90
2018-09-12T06:57:46.942Z,99.90
2018-09-12T07:00:16.678Z,99.90
2018-09-12T07:02:46.753Z,99.90
2018-09-12T07:05:16.773Z,99.90
2018-09-12T07:07:47.054Z,99.90
2018-09-12T07:10:17.509Z,99.90
2018-09-12T07:12:47.289Z,99.90
2018-09-12T07:15:17.350Z,99.90
2018-09-12T07:17:47.262Z,99.90
2018-09-12T07:20:17.011Z,99.90
2018-09-12T07:22:47.038Z,99.90
2018-09-12T07:25:17.209Z,99.90
2018-09-12T07:27:46.954Z,99.90
2018-09-12T07:30:17.573Z,99.90
2018-09-12T07:32:47.596Z,99.90
2018-09-12T07:35:17.676Z,99.90
2018-09-12T07:37:47.661Z,99.90
2018-09-12T07:40:17.913Z,99.90
2018-09-12T07:42:48.896Z,99.90
2018-09-12T07:45:19.133Z,99.90
2018-09-12T07:47:49.357Z,99.90
2018-09-12T07:50:19.351Z,99.90
2018-09-12T07:52:48.336Z,99.90
2018-09-12T07:55:17.902Z,99.90
2018-09-12T07:57:51.857Z,99.90
2018-09-12T08:00:21.918Z,99.90
2018-09-12T08:02:55.359Z,99.90
2018-09-12T08:05:25.008Z,99.90
2018-09-12T08:07:55.172Z,99.90
2018-09-12T08:10:24.954Z,99.90
2018-09-12T08:12:55.888Z,99.90
2018-09-12T08:15:26.073Z,99.90
2018-09-12T08:17:56.173Z,99.90
2018-09-12T08:20:25.688Z,99.90
2018-09-12T08:22:55.724Z,99.90
2018-09-12T08:25:25.788Z,99.90
2018-09-12T08:27:55.656Z,99.90
2018-09-12T08:30:26.008Z,99.90
2018-09-12T08:32:55.864Z,99.90
2018-09-12T08:35:26.035Z,99.90
2018-09-12T08:37:56.092Z,99.90
2018-09-12T08:40:25.811Z,99.90
2018-09-12T08:42:56.544Z,99.90
2018-09-12T08:45:26.564Z,99.90
2018-09-12T08:47:56.598Z,99.90
2018-09-12T08:50:26.611Z,99.90
2018-09-12T08:52:57.289Z,99.90
2018-09-12T08:55:26.472Z,99.90
2018-09-12T08:57:56.492Z,99.90
2018-09-12T09:00:32.717Z,99.90
2018-09-12T09:03:02.608Z,99.90
2018-09-12T09:05:33.258Z,99.90
2018-09-12T09:08:02.781Z,99.90
2018-09-12T09:10:32.697Z,99.90
2018-09-12T09:13:02.706Z,99.90
2018-09-12T09:15:32.827Z,99.90
2018-09-12T09:18:02.760Z,99.90
2018-09-12T09:20:32.711Z,99.90
2018-09-12T09:23:02.995Z,99.90
2018-09-12T09:25:33.034Z,99.90
2018-09-12T09:28:02.667Z,99.90
2018-09-12T09:30:34.672Z,99.90
2018-09-12T09:33:04.443Z,99.90
2018-09-12T09:35:34.014Z,99.90
2018-09-12T09:38:04.431Z,99.90
2018-09-12T09:40:35.040Z,99.90
2018-09-12T09:43:04.736Z,99.90
2018-09-12T09:45:35.144Z,99.90
2018-09-12T09:48:04.749Z,99.90
2018-09-12T09:50:34.582Z,99.90
2018-09-12T09:53:04.937Z,99.90
2018-09-12T09:55:34.483Z,99.90
2018-09-12T09:58:04.534Z,99.90
2018-09-12T10:00:39.407Z,99.90
2018-09-12T10:03:14.925Z,99.90
2018-09-12T10:05:50.188Z,99.90
2018-09-12T10:08:25.041Z,99.90
2018-09-12T10:10:54.559Z,99.90
2018-09-12T10:13:24.535Z,99.90
2018-09-12T10:15:54.330Z,99.90
2018-09-12T10:18:24.551Z,99.90
2018-09-12T10:20:54.731Z,99.90
2018-09-12T10:23:25.708Z,99.90
2018-09-12T10:25:56.746Z,99.90
2018-09-12T10:28:27.431Z,99.90
2018-09-12T10:30:57.423Z,99.90
2018-09-12T10:33:27.556Z,99.90
2018-09-12T10:35:57.440Z,99.90
2018-09-12T10:38:27.939Z,99.90
2018-09-12T10:40:57.530Z,99.90
2018-09-12T10:43:27.414Z,99.90
2018-09-12T10:45:57.563Z,99.90
2018-09-12T10:48:27.200Z,99.90
2018-09-12T10:50:57.392Z,99.90
2018-09-12T10:53:27.383Z,99.90
2018-09-12T10:55:58.189Z,99.90
2018-09-12T10:58:28.100Z,99.00
2018-09-12T11:00:58.203Z,99.20
2018-09-12T11:03:28.266Z,99.80
2018-09-12T11:05:58.327Z,99.90
2018-09-12T11:08:28.467Z,99.00
2018-09-12T11:10:58.657Z,98.70
2018-09-12T11:13:28.606Z,97.90
2018-09-12T11:15:58.372Z,96.40
2018-09-12T11:18:28.487Z,95.90
2018-09-12T11:20:58.377Z,95.90
2018-09-12T11:23:29.447Z,94.40
2018-09-12T11:25:58.920Z,94.20
2018-09-12T11:28:28.364Z,94.20
2018-09-12T11:30:58.349Z,94.70
2018-09-12T11:33:30.074Z,94.80
2018-09-12T11:36:00.239Z,93.30
2018-09-12T11:38:31.828Z,93.00
2018-09-12T11:41:03.129Z,92.80
2018-09-12T11:43:34.667Z,91.80
2018-09-12T11:46:09.307Z,91.70
2018-09-12T11:48:41.284Z,91.30
2018-09-12T11:51:14.400Z,91.60
2018-09-12T11:53:44.714Z,92.00
2018-09-12T11:56:14.468Z,91.90
2018-09-12T11:58:43.821Z,92.00
2018-09-12T12:01:17.700Z,89.80
2018-09-12T12:03:48.272Z,89.50
2018-09-12T12:06:18.308Z,90.00
2018-09-12T12:08:48.761Z,90.30
2018-09-12T12:11:18.346Z,90.30
2018-09-12T12:13:48.423Z,90.50
2018-09-12T12:16:18.259Z,91.40
2018-09-12T12:18:48.311Z,90.70
2018-09-12T12:21:18.374Z,91.10
2018-09-12T12:23:48.357Z,90.20
2018-09-12T12:26:18.398Z,90.60
2018-09-12T12:28:48.397Z,90.90
2018-09-12T12:31:19.354Z,90.20
2018-09-12T12:33:49.555Z,90.00
2018-09-12T12:36:20.082Z,89.90
2018-09-12T12:38:49.638Z,90.10
2018-09-12T12:41:19.699Z,90.00
2018-09-12T12:43:49.180Z,90.80
2018-09-12T12:46:19.231Z,91.40
2018-09-12T12:48:49.548Z,92.00
2018-09-12T12:51:19.696Z,91.70
2018-09-12T12:53:49.632Z,90.40
2018-09-12T12:56:19.838Z,87.10
2018-09-12T12:58:49.611Z,88.80
2018-09-12T13:01:19.189Z,86.80
2018-09-12T13:03:49.232Z,87.60
2018-09-12T13:06:19.253Z,87.30
2018-09-12T13:08:49.171Z,88.60
2018-09-12T13:11:19.489Z,88.40
2018-09-12T13:13:49.195Z,89.30
2018-09-12T13:16:19.312Z,90.00
2018-09-12T13:18:49.308Z,88.30
2018-09-12T13:21:19.048Z,88.60
2018-09-12T13:23:48.902Z,89.10
2018-09-12T13:26:19.353Z,89.60
2018-09-12T13:28:49.744Z,88.70
2018-09-12T13:31:19.997Z,87.50
2018-09-12T13:33:50.149Z,87.60
2018-09-12T13:36:20.297Z,86.90
2018-09-12T13:38:50.627Z,86.30
2018-09-12T13:41:21.324Z,86.20
2018-09-12T13:43:51.615Z,88.00
2018-09-12T13:46:21.946Z,84.80
2018-09-12T13:48:52.051Z,83.70
2018-09-12T13:51:22.202Z,84.10
2018-09-12T13:53:52.159Z,85.70
2018-09-12T13:56:23.375Z,85.10
2018-09-12T13:58:53.706Z,84.40
2018-09-12T14:01:23.971Z,83.90
2018-09-12T14:03:54.171Z,85.10
2018-09-12T14:06:23.858Z,82.30
2018-09-12T14:08:53.820Z,83.00
2018-09-12T14:20:30.425Z,81.40
2018-09-12T14:23:00.705Z,80.70
2018-09-12T14:25:30.651Z,81.70
2018-09-12T14:28:02.794Z,80.00
2018-09-12T14:30:32.595Z,81.10
2018-09-12T14:33:02.233Z,81.20
2018-09-12T14:35:31.575Z,82.00
2018-09-12T14:38:01.386Z,82.90
2018-09-12T14:40:31.033Z,82.80
2018-09-12T14:43:00.249Z,82.00
2018-09-12T14:45:29.604Z,81.60
2018-09-12T14:47:58.893Z,80.30
2018-09-12T14:50:28.340Z,80.60
2018-09-12T14:52:59.198Z,81.40
2018-09-12T14:55:29.574Z,82.00
2018-09-12T14:58:00.425Z,81.80
2018-09-12T15:00:29.643Z,81.90
2018-09-12T15:03:00.495Z,82.10
2018-09-12T15:05:31.848Z,80.60
2018-09-12T15:08:01.414Z,78.70
2018-09-12T15:10:31.542Z,79.40
2018-09-12T15:13:01.162Z,77.50
2018-09-12T15:15:30.836Z,77.30
2018-09-12T15:18:00.088Z,78.90
2018-09-12T15:20:30.587Z,80.00
2018-09-12T15:23:00.343Z,80.60
2018-09-12T15:25:30.500Z,80.40
2018-09-12T15:28:01.812Z,80.60
2018-09-12T15:30:31.394Z,81.30
2018-09-12T15:33:00.964Z,82.70
2018-09-12T15:35:30.718Z,81.90
2018-09-12T15:38:02.440Z,81.80
2018-09-12T15:40:39.133Z,81.40
2018-09-12T15:43:09.285Z,81.60
2018-09-12T15:45:39.789Z,81.10
2018-09-12T15:48:10.285Z,81.80
2018-09-12T15:50:39.887Z,81.60
2018-09-12T15:53:10.596Z,82.10
2018-09-12T15:55:42.740Z,81.90
2018-09-12T15:58:12.811Z,82.50
2018-09-12T16:00:47.075Z,82.60
2018-09-12T16:03:16.729Z,83.80
2018-09-12T16:05:46.870Z,84.10
2018-09-12T16:08:17.000Z,83.70
2018-09-12T16:10:47.170Z,83.80
2018-09-12T16:13:17.453Z,83.90
2018-09-12T16:15:46.883Z,84.20
2018-09-12T16:18:17.240Z,83.60
2018-09-12T16:20:48.571Z,84.80
2018-09-12T16:23:19.449Z,86.10
2018-09-12T16:25:50.693Z,86.50
2018-09-12T16:28:20.197Z,86.10
2018-09-12T16:30:49.706Z,86.80
2018-09-12T16:33:19.827Z,88.00
2018-09-12T16:35:49.068Z,87.20
2018-09-12T16:38:19.201Z,88.20
2018-09-12T16:40:49.468Z,88.70
2018-09-12T16:43:19.621Z,88.50
2018-09-12T16:45:50.032Z,89.60
2018-09-12T16:48:23.990Z,90.00
2018-09-12T16:50:54.578Z,90.20
2018-09-12T16:53:24.211Z,90.40
2018-09-12T16:55:54.481Z,90.60
2018-09-12T16:58:25.725Z,90.80
2018-09-12T17:00:55.852Z,91.40
2018-09-12T17:03:26.238Z,91.60
2018-09-12T17:05:56.455Z,91.60
2018-09-12T17:08:26.625Z,91.50
2018-09-12T17:10:56.841Z,91.70
2018-09-12T17:13:29.344Z,92.20
2018-09-12T17:16:03.091Z,92.10
2018-09-12T17:18:34.778Z,92.30
2018-09-12T17:21:16.899Z,92.70
2018-09-12T17:23:47.298Z,93.20
2018-09-12T17:26:17.347Z,93.10
2018-09-12T17:28:47.509Z,92.90
2018-09-12T17:31:17.557Z,93.10
2018-09-12T17:33:49.179Z,93.10
2018-09-12T17:36:19.064Z,93.10
2018-09-12T17:40:18.618Z,93.10
2018-09-12T17:42:48.331Z,93.60
2018-09-12T17:45:17.922Z,93.90
2018-09-12T17:47:49.172Z,93.90
2018-09-12T17:50:19.816Z,94.10
2018-09-12T17:52:51.101Z,94.30
2018-09-12T17:55:21.434Z,94.30
2018-09-12T17:57:51.754Z,94.30
2018-09-12T18:00:22.144Z,94.60
2018-09-12T18:02:57.809Z,94.60
2018-09-12T18:05:27.499Z,94.80
2018-09-12T18:07:58.182Z,94.60
2018-09-12T18:10:28.530Z,94.90
2018-09-12T18:12:58.620Z,95.20
2018-09-12T18:15:28.517Z,95.20
2018-09-12T18:17:57.897Z,95.30
2018-09-12T18:20:27.658Z,95.40
2018-09-12T18:22:57.894Z,95.20
2018-09-12T18:39:11.545Z,95.70
2018-09-12T18:41:42.445Z,96.30
2018-09-12T18:44:13.475Z,96.40
2018-09-12T18:46:44.252Z,96.60
2018-09-12T18:49:14.596Z,96.50
2018-09-12T18:51:46.435Z,96.50
2018-09-12T18:54:18.116Z,96.70
2018-09-12T18:56:48.598Z,96.90
2018-09-12T18:59:19.540Z,97.20
2018-09-12T19:01:49.875Z,97.50
2018-09-12T19:04:19.960Z,97.70
2018-09-12T19:06:50.097Z,97.90
2018-09-12T19:09:20.128Z,98.10
2018-09-12T19:11:49.976Z,98.30
2018-09-12T19:14:20.043Z,98.50
2018-09-12T19:16:51.454Z,98.70
2018-09-12T19:19:21.723Z,98.80
2018-09-12T19:21:51.802Z,99.10
2018-09-12T19:24:22.084Z,99.40
2018-09-12T19:26:52.204Z,99.60
2018-09-12T19:29:21.893Z,99.90
2018-09-12T19:31:52.356Z,99.90
2018-09-12T19:34:24.069Z,99.90
2018-09-12T19:36:54.847Z,99.90
2018-09-12T19:39:28.643Z,99.90
2018-09-12T19:41:58.857Z,99.90
2018-09-12T19:44:29.016Z,99.90
2018-09-12T19:46:59.028Z,99.90
2018-09-12T19:49:29.095Z,99.90
2018-09-12T19:51:58.911Z,99.90
2018-09-12T19:54:30.252Z,99.90
2018-09-12T19:57:00.366Z,99.90
2018-09-12T19:59:30.432Z,99.90
2018-09-12T20:02:00.807Z,99.90
2018-09-12T20:04:31.057Z,99.90
2018-09-12T20:07:01.112Z,99.90
2018-09-12T20:09:31.460Z,99.90
2018-09-12T20:12:01.604Z,99.90
2018-09-12T20:14:31.556Z,99.90
2018-09-12T20:17:01.604Z,99.90
2018-09-12T20:19:31.528Z,99.90
2018-09-12T20:22:01.636Z,99.90
2018-09-12T20:24:31.774Z,99.90
2018-09-12T20:27:01.924Z,99.90
2018-09-12T20:29:31.999Z,99.90
2018-09-12T20:32:02.308Z,99.90
2018-09-12T20:34:32.413Z,99.90
2018-09-12T20:37:02.199Z,99.90
2018-09-12T20:39:32.459Z,99.90
2018-09-12T20:42:02.571Z,99.90
2018-09-12T20:44:32.732Z,99.90
2018-09-12T20:47:02.711Z,99.90
2018-09-12T20:49:32.892Z,99.90
2018-09-12T20:52:03.063Z,99.90
2018-09-12T20:54:32.899Z,99.90
2018-09-12T20:57:02.984Z,99.90
2018-09-12T20:59:32.523Z,99.90
2018-09-12T21:02:02.601Z,99.90
2018-09-12T21:04:32.671Z,99.90
2018-09-12T21:07:03.172Z,99.90
2018-09-12T21:09:34.328Z,99.90
2018-09-12T21:12:04.375Z,99.90
2018-09-12T21:14:38.184Z,99.90
2018-09-12T21:17:08.012Z,99.90
2018-09-12T21:19:38.447Z,99.90
2018-09-12T21:22:08.467Z,99.90
2018-09-12T21:24:38.615Z,99.90
2018-09-12T21:27:08.440Z,99.90
2018-09-12T21:29:38.584Z,99.90
2018-09-12T21:32:08.602Z,99.90
2018-09-12T21:34:38.889Z,99.90
2018-09-12T21:37:08.729Z,99.90
2018-09-12T21:39:38.995Z,99.90
2018-09-12T21:42:09.377Z,99.90
2018-09-12T21:44:39.503Z,99.90
2018-09-12T21:47:09.429Z,99.90
2018-09-12T21:49:39.559Z,99.90
2018-09-12T21:52:09.493Z,99.90
2018-09-12T21:54:39.447Z,99.90
2018-09-12T21:57:09.904Z,99.90
2018-09-12T21:59:41.456Z,99.90
2018-09-12T22:02:11.524Z,99.90
2018-09-12T22:04:41.554Z,99.90
2018-09-12T22:07:11.440Z,99.90
2018-09-12T22:09:41.380Z,99.90
2018-09-12T22:12:11.404Z,99.90
2018-09-12T22:14:41.473Z,99.90
2018-09-12T22:17:11.599Z,99.90
2018-09-12T22:19:41.712Z,99.90
2018-09-12T22:22:11.840Z,99.90
2018-09-12T22:24:42.165Z,99.90
2018-09-12T22:27:12.321Z,99.90
2018-09-12T22:29:42.512Z,99.90
2018-09-12T22:32:12.344Z,99.90
2018-09-12T22:34:42.432Z,99.90
2018-09-12T22:37:12.507Z,99.90
2018-09-12T22:39:42.708Z,99.90
2018-09-12T22:42:12.718Z,99.90
2018-09-12T22:44:43.177Z,99.90
2018-09-12T22:47:13.364Z,99.90
2018-09-12T22:49:43.444Z,99.90
2018-09-12T22:52:14.180Z,99.90
2018-09-12T22:54:44.396Z,99.90
2018-09-12T22:57:14.408Z,99.90
2018-09-12T22:59:44.691Z,99.90
2018-09-12T23:02:15.214Z,99.90
2018-09-12T23:04:46.251Z,99.90
2018-09-12T23:07:16.589Z,99.90
2018-09-12T23:09:46.988Z,99.90
2018-09-12T23:12:17.447Z,99.90
2018-09-12T23:14:47.327Z,99.90
2018-09-12T23:17:17.473Z,99.90
2018-09-12T23:19:48.707Z,99.90
2018-09-12T23:22:18.993Z,99.90
2018-09-12T23:24:49.159Z,99.90
2018-09-12T23:27:19.313Z,99.90
2018-09-12T23:29:49.494Z,99.90
2018-09-12T23:32:19.892Z,99.90
2018-09-12T23:34:49.320Z,99.90
2018-09-12T23:37:20.402Z,99.90
2018-09-12T23:39:50.752Z,99.90
2018-09-12T23:42:20.900Z,99.90
2018-09-12T23:44:51.098Z,99.90
2018-09-12T23:47:21.152Z,99.90
2018-09-12T23:49:51.519Z,99.90
2018-09-12T23:52:21.724Z,99.90
2018-09-12T23:54:51.727Z,99.90
2018-09-12T23:57:21.739Z,99.90
2018-09-12T23:59:51.961Z,99.90
